sensor_id;sensor_type;location;lat;lon;timestamp;pressure;altitude;pressure_sealevel;temperature;humidity
5996;BME280;3026;53.612;7.278;2022-11-20T00:00:17;101268.69;;;3.25;100.00
5996;BME280;3026;53.612;7.278;2022-11-20T00:02:44;101257.06;;;3.25;100.00
5996;BME280;3026;53.612;7.278;2022-11-20T00:05:11;101261.34;;;3.27;100.00
5996;BME280;3026;53.612;7.278;2022-11-20T00:07:39;101255.97;;;3.27;100.00
5996;BME280;3026;53.612;7.278;2022-11-20T00:10:07;101258.66;;;3.27;100.00
5996;BME280;3026;53.612;7.278;2022-11-20T00:12:34;101257.69;;;3.28;100.00
5996;BME280;3026;53.612;7.278;2022-11-20T00:15:00;101255.84;;;3.29;100.00
5996;BME280;3026;53.612;7.278;2022-11-20T00:17:27;101246.88;;;3.28;100.00
5996;BME280;3026;53.612;7.278;2022-11-20T00:19:54;101247.13;;;3.25;100.00
5996;BME280;3026;53.612;7.278;2022-11-20T00:22:21;101246.88;;;3.28;100.00
5996;BME280;3026;53.612;7.278;2022-11-20T00:24:50;101254.97;;;3.28;100.00
5996;BME280;3026;53.612;7.278;2022-11-20T00:27:17;101254.97;;;3.28;100.00
5996;BME280;3026;53.612;7.278;2022-11-20T00:29:44;101252.28;;;3.28;100.00
5996;BME280;3026;53.612;7.278;2022-11-20T00:32:10;101240.63;;;3.28;100.00
5996;BME280;3026;53.612;7.278;2022-11-20T00:34:37;101232.69;;;3.26;100.00
5996;BME280;3026;53.612;7.278;2022-11-20T00:37:04;101243.47;;;3.26;100.00
5996;BME280;3026;53.612;7.278;2022-11-20T00:39:31;101252.28;;;3.28;100.00
5996;BME280;3026;53.612;7.278;2022-11-20T00:41:59;101243.34;;;3.28;100.00
5996;BME280;3026;53.612;7.278;2022-11-20T00:44:26;101238.81;;;3.28;100.00
5996;BME280;3026;53.612;7.278;2022-11-20T00:46:53;101236.09;;;3.28;100.00
5996;BME280;3026;53.612;7.278;2022-11-20T00:49:20;101241.25;;;3.31;100.00
5996;BME280;3026;53.612;7.278;2022-11-20T00:51:47;101240.41;;;3.31;100.00
5996;BME280;3026;53.612;7.278;2022-11-20T00:54:14;101237.81;;;3.29;100.00
5996;BME280;3026;53.612;7.278;2022-11-20T00:56:40;101234.16;;;3.30;100.00
5996;BME280;3026;53.612;7.278;2022-11-20T00:59:10;101227.28;;;3.26;100.00
5996;BME280;3026;53.612;7.278;2022-11-20T01:01:37;101233.28;;;3.30;100.00
5996;BME280;3026;53.612;7.278;2022-11-20T01:04:04;101238.69;;;3.30;100.00
5996;BME280;3026;53.612;7.278;2022-11-20T01:06:33;101240.41;;;3.31;100.00
5996;BME280;3026;53.612;7.278;2022-11-20T01:09:02;101234.16;;;3.30;100.00
5996;BME280;3026;53.612;7.278;2022-11-20T01:11:31;101235.00;;;3.31;100.00
5996;BME280;3026;53.612;7.278;2022-11-20T01:14:00;101226.19;;;3.29;100.00
5996;BME280;3026;53.612;7.278;2022-11-20T01:16:30;101228.75;;;3.30;100.00
5996;BME280;3026;53.612;7.278;2022-11-20T01:18:59;101226.31;;;3.27;100.00
5996;BME280;3026;53.612;7.278;2022-11-20T01:21:27;101223.63;;;3.27;100.00
5996;BME280;3026;53.612;7.278;2022-11-20T01:23:55;101221.66;;;3.29;100.00
5996;BME280;3026;53.612;7.278;2022-11-20T01:26:24;101227.03;;;3.29;100.00
5996;BME280;3026;53.612;7.278;2022-11-20T01:28:51;101213.69;;;3.28;100.00
5996;BME280;3026;53.612;7.278;2022-11-20T01:31:21;101212.84;;;3.27;100.00
5996;BME280;3026;53.612;7.278;2022-11-20T01:33:51;101209.63;;;3.22;100.00
5996;BME280;3026;53.612;7.278;2022-11-20T01:36:19;101200.53;;;3.23;100.00
5996;BME280;3026;53.612;7.278;2022-11-20T01:38:47;101206.19;;;3.20;100.00
5996;BME280;3026;53.612;7.278;2022-11-20T01:41:15;101198.22;;;3.18;100.00
5996;BME280;3026;53.612;7.278;2022-11-20T01:44:03;101192.22;;;3.15;100.00
5996;BME280;3026;53.612;7.278;2022-11-20T01:46:30;101182.75;;;3.09;100.00
5996;BME280;3026;53.612;7.278;2022-11-20T01:49:01;101189.22;;;3.07;100.00
5996;BME280;3026;53.612;7.278;2022-11-20T01:51:32;101184.94;;;3.04;100.00
5996;BME280;3026;53.612;7.278;2022-11-20T01:54:02;101182.56;;;3.00;100.00
5996;BME280;3026;53.612;7.278;2022-11-20T01:56:31;101190.56;;;3.01;100.00
5996;BME280;3026;53.612;7.278;2022-11-20T01:59:01;101191.41;;;3.02;100.00
5996;BME280;3026;53.612;7.278;2022-11-20T02:01:31;101198.66;;;3.01;100.00
5996;BME280;3026;53.612;7.278;2022-11-20T02:03:59;101187.75;;;3.03;100.00
5996;BME280;3026;53.612;7.278;2022-11-20T02:06:29;101188.59;;;3.03;100.00
5996;BME280;3026;53.612;7.278;2022-11-20T02:08:57;101193.13;;;3.03;100.00
5996;BME280;3026;53.612;7.278;2022-11-20T02:11:24;101178.91;;;3.01;100.00
5996;BME280;3026;53.612;7.278;2022-11-20T02:13:51;101170.72;;;3.02;100.00
5996;BME280;3026;53.612;7.278;2022-11-20T02:16:20;101165.34;;;3.02;100.00
5996;BME280;3026;53.612;7.278;2022-11-20T02:18:49;101166.19;;;3.03;100.00
5996;BME280;3026;53.612;7.278;2022-11-20T02:21:34;101171.59;;;3.03;100.00
5996;BME280;3026;53.612;7.278;2022-11-20T02:24:08;101162.53;;;3.04;100.00
5996;BME280;3026;53.612;7.278;2022-11-20T02:26:41;101161.66;;;3.03;100.00
5996;BME280;3026;53.612;7.278;2022-11-20T02:29:09;101160.81;;;3.03;100.00
5996;BME280;3026;53.612;7.278;2022-11-20T02:31:38;101153.69;;;3.02;100.00
5996;BME280;3026;53.612;7.278;2022-11-20T02:34:06;101155.41;;;3.03;100.00
5996;BME280;3026;53.612;7.278;2022-11-20T02:36:35;101151.75;;;3.04;100.00
5996;BME280;3026;53.612;7.278;2022-11-20T02:39:04;101152.72;;;3.03;100.00
5996;BME280;3026;53.612;7.278;2022-11-20T02:41:33;101150.88;;;3.03;100.00
5996;BME280;3026;53.612;7.278;2022-11-20T02:44:01;101157.13;;;3.04;100.00
5996;BME280;3026;53.612;7.278;2022-11-20T02:46:29;101149.91;;;3.04;100.00
5996;BME280;3026;53.612;7.278;2022-11-20T02:48:56;101149.78;;;3.06;100.00
5996;BME280;3026;53.612;7.278;2022-11-20T02:51:23;101154.06;;;3.08;100.00
5996;BME280;3026;53.612;7.278;2022-11-20T02:53:50;101154.94;;;3.09;100.00
5996;BME280;3026;53.612;7.278;2022-11-20T02:56:19;101156.66;;;3.10;100.00
5996;BME280;3026;53.612;7.278;2022-11-20T02:58:46;101145.88;;;3.10;100.00
5996;BME280;3026;53.612;7.278;2022-11-20T03:01:13;101152.97;;;3.11;100.00
5996;BME280;3026;53.612;7.278;2022-11-20T03:03:40;101156.44;;;3.13;100.00
5996;BME280;3026;53.612;7.278;2022-11-20T03:06:07;101158.16;;;3.14;100.00
5996;BME280;3026;53.612;7.278;2022-11-20T03:08:34;101158.16;;;3.14;100.00
5996;BME280;3026;53.612;7.278;2022-11-20T03:11:03;101155.22;;;3.17;100.00
5996;BME280;3026;53.612;7.278;2022-11-20T03:13:31;101145.66;;;3.13;100.00
5996;BME280;3026;53.612;7.278;2022-11-20T03:16:05;101143.47;;;3.18;100.00
5996;BME280;3026;53.612;7.278;2022-11-20T03:18:32;101145.19;;;3.19;100.00
5996;BME280;3026;53.612;7.278;2022-11-20T03:20:59;101145.19;;;3.19;100.00
5996;BME280;3026;53.612;7.278;2022-11-20T03:23:28;101141.75;;;3.17;100.00
5996;BME280;3026;53.612;7.278;2022-11-20T03:25:55;101140.03;;;3.16;100.00
5996;BME280;3026;53.612;7.278;2022-11-20T03:28:22;101122.16;;;3.15;100.00
5996;BME280;3026;53.612;7.278;2022-11-20T03:30:50;101119.56;;;3.13;100.00
5996;BME280;3026;53.612;7.278;2022-11-20T03:33:17;101121.41;;;3.13;100.00
5996;BME280;3026;53.612;7.278;2022-11-20T03:35:44;101117.09;;;3.10;100.00
5996;BME280;3026;53.612;7.278;2022-11-20T03:38:11;101120.66;;;3.11;100.00
5996;BME280;3026;53.612;7.278;2022-11-20T03:40:38;101117.22;;;3.09;100.00
5996;BME280;3026;53.612;7.278;2022-11-20T03:43:05;101115.50;;;3.08;100.00
5996;BME280;3026;53.612;7.278;2022-11-20T03:45:32;101106.69;;;3.06;100.00
5996;BME280;3026;53.612;7.278;2022-11-20T03:48:00;101112.06;;;3.06;100.00
5996;BME280;3026;53.612;7.278;2022-11-20T03:50:28;101101.28;;;3.06;100.00
5996;BME280;3026;53.612;7.278;2022-11-20T03:52:54;101112.06;;;3.06;100.00
5996;BME280;3026;53.612;7.278;2022-11-20T03:55:21;101104.00;;;3.06;100.00
5996;BME280;3026;53.612;7.278;2022-11-20T03:57:48;101104.97;;;3.05;100.00
5996;BME280;3026;53.612;7.278;2022-11-20T04:00:15;101115.75;;;3.05;100.00
5996;BME280;3026;53.612;7.278;2022-11-20T04:02:42;101099.59;;;3.05;100.00
5996;BME280;3026;53.612;7.278;2022-11-20T04:05:10;101100.44;;;3.05;100.00
5996;BME280;3026;53.612;7.278;2022-11-20T04:07:38;101097.63;;;3.07;100.00
5996;BME280;3026;53.612;7.278;2022-11-20T04:10:05;101090.53;;;3.06;100.00
5996;BME280;3026;53.612;7.278;2022-11-20T04:12:34;101081.69;;;3.04;100.00
5996;BME280;3026;53.612;7.278;2022-11-20T04:15:01;101081.59;;;3.05;100.00
5996;BME280;3026;53.612;7.278;2022-11-20T04:17:28;101073.50;;;3.05;100.00
5996;BME280;3026;53.612;7.278;2022-11-20T04:19:55;101070.69;;;3.07;100.00
5996;BME280;3026;53.612;7.278;2022-11-20T04:22:23;101063.59;;;3.06;100.00
5996;BME280;3026;53.612;7.278;2022-11-20T04:24:50;101058.19;;;3.06;100.00
5996;BME280;3026;53.612;7.278;2022-11-20T04:27:17;101056.47;;;3.05;100.00
5996;BME280;3026;53.612;7.278;2022-11-20T04:29:44;101050.09;;;3.06;100.00
5996;BME280;3026;53.612;7.278;2022-11-20T04:32:10;101058.19;;;3.06;100.00
5996;BME280;3026;53.612;7.278;2022-11-20T04:34:37;101052.94;;;3.04;100.00
5996;BME280;3026;53.612;7.278;2022-11-20T04:37:04;101062.00;;;3.03;100.00
5996;BME280;3026;53.612;7.278;2022-11-20T04:39:32;101061.00;;;3.04;100.00
5996;BME280;3026;53.612;7.278;2022-11-20T04:41:59;101067.25;;;3.05;100.00
5996;BME280;3026;53.612;7.278;2022-11-20T04:44:43;101068.22;;;3.04;100.00
5996;BME280;3026;53.612;7.278;2022-11-20T04:47:10;101062.09;;;3.02;100.00
5996;BME280;3026;53.612;7.278;2022-11-20T04:49:37;101060.38;;;3.01;100.00
5996;BME280;3026;53.612;7.278;2022-11-20T04:52:03;101065.75;;;3.01;100.00
5996;BME280;3026;53.612;7.278;2022-11-20T04:54:32;101055.88;;;3.01;100.00
5996;BME280;3026;53.612;7.278;2022-11-20T04:56:58;101046.16;;;2.99;100.00
5996;BME280;3026;53.612;7.278;2022-11-20T04:59:25;101053.25;;;3.00;100.00
5996;BME280;3026;53.612;7.278;2022-11-20T05:01:52;101038.94;;;2.99;100.00
5996;BME280;3026;53.612;7.278;2022-11-20T05:04:19;101044.19;;;3.01;100.00
5996;BME280;3026;53.612;7.278;2022-11-20T05:06:46;101046.81;;;3.02;100.00
5996;BME280;3026;53.612;7.278;2022-11-20T05:09:13;101047.66;;;3.03;100.00
5996;BME280;3026;53.612;7.278;2022-11-20T05:11:42;101041.28;;;3.04;100.00
5996;BME280;3026;53.612;7.278;2022-11-20T05:14:09;101039.47;;;3.04;100.00
5996;BME280;3026;53.612;7.278;2022-11-20T05:16:35;101032.09;;;3.06;100.00
5996;BME280;3026;53.612;7.278;2022-11-20T05:19:02;101024.41;;;3.02;100.00
5996;BME280;3026;53.612;7.278;2022-11-20T05:21:30;101031.84;;;3.09;100.00
5996;BME280;3026;53.612;7.278;2022-11-20T05:23:57;101022.19;;;3.07;100.00
5996;BME280;3026;53.612;7.278;2022-11-20T05:26:24;101027.44;;;3.08;100.00
5996;BME280;3026;53.612;7.278;2022-11-20T05:28:52;101024.75;;;3.08;100.00
5996;BME280;3026;53.612;7.278;2022-11-20T05:31:21;101034.69;;;3.08;100.00
5996;BME280;3026;53.612;7.278;2022-11-20T05:33:48;101031.25;;;3.06;100.00
5996;BME280;3026;53.612;7.278;2022-11-20T05:36:15;101025.88;;;3.06;100.00
5996;BME280;3026;53.612;7.278;2022-11-20T05:38:42;101029.53;;;3.05;100.00
5996;BME280;3026;53.612;7.278;2022-11-20T05:41:11;101022.44;;;3.04;100.00
5996;BME280;3026;53.612;7.278;2022-11-20T05:43:40;101025.25;;;3.02;100.00
5996;BME280;3026;53.612;7.278;2022-11-20T05:46:11;101028.03;;;3.01;100.00
5996;BME280;3026;53.612;7.278;2022-11-20T05:48:39;101024.63;;;2.99;100.00
5996;BME280;3026;53.612;7.278;2022-11-20T05:51:08;101022.91;;;2.98;100.00
5996;BME280;3026;53.612;7.278;2022-11-20T05:53:36;101021.19;;;2.97;100.00
5996;BME280;3026;53.612;7.278;2022-11-20T05:56:05;101030.25;;;2.96;100.00
5996;BME280;3026;53.612;7.278;2022-11-20T05:58:33;101024.84;;;2.96;100.00
5996;BME280;3026;53.612;7.278;2022-11-20T06:01:05;101020.56;;;2.93;100.00
5996;BME280;3026;53.612;7.278;2022-11-20T06:03:33;101017.03;;;2.92;100.00
5996;BME280;3026;53.612;7.278;2022-11-20T06:06:00;101020.56;;;2.93;100.00
5996;BME280;3026;53.612;7.278;2022-11-20T06:08:27;101016.03;;;2.93;100.00
5996;BME280;3026;53.612;7.278;2022-11-20T06:10:55;101001.84;;;2.91;100.00
5996;BME280;3026;53.612;7.278;2022-11-20T06:13:22;101011.75;;;2.91;100.00
5996;BME280;3026;53.612;7.278;2022-11-20T06:15:49;101002.31;;;2.85;100.00
5996;BME280;3026;53.612;7.278;2022-11-20T06:18:16;100997.16;;;2.82;100.00
5996;BME280;3026;53.612;7.278;2022-11-20T06:20:44;101000.09;;;2.79;100.00
5996;BME280;3026;53.612;7.278;2022-11-20T06:23:11;101001.09;;;2.78;100.00
5996;BME280;3026;53.612;7.278;2022-11-20T06:25:38;101003.66;;;2.80;100.00
5996;BME280;3026;53.612;7.278;2022-11-20T06:28:06;101003.66;;;2.80;100.00
5996;BME280;3026;53.612;7.278;2022-11-20T06:30:34;101006.22;;;2.81;100.00
5996;BME280;3026;53.612;7.278;2022-11-20T06:33:02;101008.19;;;2.79;100.00
5996;BME280;3026;53.612;7.278;2022-11-20T06:35:29;101008.19;;;2.79;100.00
5996;BME280;3026;53.612;7.278;2022-11-20T06:37:57;101006.47;;;2.78;100.00
5996;BME280;3026;53.612;7.278;2022-11-20T06:40:24;101000.44;;;2.75;100.00
5996;BME280;3026;53.612;7.278;2022-11-20T06:42:53;101006.94;;;2.72;100.00
5996;BME280;3026;53.612;7.278;2022-11-20T06:45:21;100997.25;;;2.70;100.00
5996;BME280;3026;53.612;7.278;2022-11-20T06:47:47;101009.13;;;2.67;100.00
5996;BME280;3026;53.612;7.278;2022-11-20T06:50:14;100997.72;;;2.63;100.00
5996;BME280;3026;53.612;7.278;2022-11-20T06:52:41;100999.56;;;2.63;100.00
5996;BME280;3026;53.612;7.278;2022-11-20T06:55:10;101009.59;;;2.61;100.00
5996;BME280;3026;53.612;7.278;2022-11-20T06:57:37;101009.59;;;2.61;100.00
5996;BME280;3026;53.612;7.278;2022-11-20T07:00:04;101013.25;;;2.60;100.00
5996;BME280;3026;53.612;7.278;2022-11-20T07:02:31;101010.56;;;2.60;100.00
5996;BME280;3026;53.612;7.278;2022-11-20T07:04:58;101006.16;;;2.59;100.00
5996;BME280;3026;53.612;7.278;2022-11-20T07:07:25;101023.78;;;2.63;100.00
5996;BME280;3026;53.612;7.278;2022-11-20T07:09:52;101032.84;;;2.62;100.00
5996;BME280;3026;53.612;7.278;2022-11-20T07:12:20;101022.31;;;2.59;100.00
5996;BME280;3026;53.612;7.278;2022-11-20T07:14:47;101017.16;;;2.56;100.00
5996;BME280;3026;53.612;7.278;2022-11-20T07:17:14;101015.47;;;2.55;100.00
5996;BME280;3026;53.612;7.278;2022-11-20T07:19:41;101012.97;;;2.52;100.00
5996;BME280;3026;53.612;7.278;2022-11-20T07:22:08;101003.91;;;2.53;100.00
5996;BME280;3026;53.612;7.278;2022-11-20T07:24:35;101006.41;;;2.56;100.00
5996;BME280;3026;53.612;7.278;2022-11-20T07:27:01;101002.72;;;2.57;100.00
5996;BME280;3026;53.612;7.278;2022-11-20T07:29:31;101003.81;;;2.54;100.00
5996;BME280;3026;53.612;7.278;2022-11-20T07:31:57;100996.50;;;2.56;100.00
5996;BME280;3026;53.612;7.278;2022-11-20T07:34:24;100997.34;;;2.57;100.00
5996;BME280;3026;53.612;7.278;2022-11-20T07:36:51;100999.06;;;2.58;100.00
5996;BME280;3026;53.612;7.278;2022-11-20T07:39:18;100997.34;;;2.57;100.00
5996;BME280;3026;53.612;7.278;2022-11-20T07:41:45;101000.03;;;2.57;100.00
5996;BME280;3026;53.612;7.278;2022-11-20T07:44:12;100997.34;;;2.57;100.00
5996;BME280;3026;53.612;7.278;2022-11-20T07:46:40;101001.03;;;2.56;100.00
5996;BME280;3026;53.612;7.278;2022-11-20T07:49:07;100995.41;;;2.59;100.00
5996;BME280;3026;53.612;7.278;2022-11-20T07:51:34;100995.41;;;2.59;100.00
5996;BME280;3026;53.612;7.278;2022-11-20T07:54:02;100999.06;;;2.58;100.00
5996;BME280;3026;53.612;7.278;2022-11-20T07:56:28;101002.50;;;2.60;100.00
5996;BME280;3026;53.612;7.278;2022-11-20T07:58:55;100998.81;;;2.61;100.00
5996;BME280;3026;53.612;7.278;2022-11-20T08:01:22;101005.91;;;2.62;100.00
5996;BME280;3026;53.612;7.278;2022-11-20T08:03:50;101008.50;;;2.63;100.00
5996;BME280;3026;53.612;7.278;2022-11-20T08:06:18;101007.38;;;2.66;100.00
5996;BME280;3026;53.612;7.278;2022-11-20T08:08:45;101002.91;;;2.67;100.00
5996;BME280;3026;53.612;7.278;2022-11-20T08:11:12;101000.06;;;2.68;100.00
5996;BME280;3026;53.612;7.278;2022-11-20T08:13:56;101001.78;;;2.69;100.00
5996;BME280;3026;53.612;7.278;2022-11-20T08:16:39;101003.50;;;2.70;100.00
5996;BME280;3026;53.612;7.278;2022-11-20T08:19:07;100997.88;;;2.73;100.00
5996;BME280;3026;53.612;7.278;2022-11-20T08:21:34;100996.16;;;2.72;100.00
5996;BME280;3026;53.612;7.278;2022-11-20T08:24:01;100997.88;;;2.73;100.00
5996;BME280;3026;53.612;7.278;2022-11-20T08:26:28;100987.09;;;2.73;100.00
5996;BME280;3026;53.612;7.278;2022-11-20T08:28:56;100990.53;;;2.75;100.00
5996;BME280;3026;53.612;7.278;2022-11-20T08:31:23;100988.56;;;2.77;100.00
5996;BME280;3026;53.612;7.278;2022-11-20T08:33:51;100991.06;;;2.80;100.00
5996;BME280;3026;53.612;7.278;2022-11-20T08:36:20;100986.66;;;2.79;100.00
5996;BME280;3026;53.612;7.278;2022-11-20T08:38:48;100990.94;;;2.82;100.00
5996;BME280;3026;53.612;7.278;2022-11-20T08:41:15;100994.34;;;2.84;100.00
5996;BME280;3026;53.612;7.278;2022-11-20T08:43:54;100987.13;;;2.84;100.00
5996;BME280;3026;53.612;7.278;2022-11-20T08:46:23;100996.78;;;2.87;100.00
5996;BME280;3026;53.612;7.278;2022-11-20T08:48:50;100988.50;;;2.90;100.00
5996;BME280;3026;53.612;7.278;2022-11-20T08:51:19;100984.94;;;2.89;100.00
5996;BME280;3026;53.612;7.278;2022-11-20T08:53:46;100992.78;;;2.92;100.00
5996;BME280;3026;53.612;7.278;2022-11-20T08:56:15;100993.50;;;2.95;100.00
5996;BME280;3026;53.612;7.278;2022-11-20T08:58:42;100998.78;;;2.96;100.00
5996;BME280;3026;53.612;7.278;2022-11-20T09:01:10;101001.34;;;2.98;100.00
5996;BME280;3026;53.612;7.278;2022-11-20T09:03:37;100997.69;;;2.99;100.00
5996;BME280;3026;53.612;7.278;2022-11-20T09:06:06;100993.91;;;3.01;100.00
5996;BME280;3026;53.612;7.278;2022-11-20T09:08:35;100993.53;;;3.06;100.00
5996;BME280;3026;53.612;7.278;2022-11-20T09:11:03;100986.19;;;3.08;100.00
5996;BME280;3026;53.612;7.278;2022-11-20T09:13:31;100989.59;;;3.10;100.00
5996;BME280;3026;53.612;7.278;2022-11-20T09:15:59;100996.72;;;3.11;100.00
5996;BME280;3026;53.612;7.278;2022-11-20T09:18:27;100998.94;;;3.17;100.00
5996;BME280;3026;53.612;7.278;2022-11-20T09:20:57;100985.22;;;3.20;100.00
5996;BME280;3026;53.612;7.278;2022-11-20T09:23:24;100988.41;;;3.25;100.00
5996;BME280;3026;53.612;7.278;2022-11-20T09:25:53;100962.41;;;3.24;100.00
5996;BME280;3026;53.612;7.278;2022-11-20T09:28:24;100969.78;;;3.33;100.00
5996;BME280;3026;53.612;7.278;2022-11-20T09:30:51;100971.00;;;3.40;100.00
5996;BME280;3026;53.612;7.278;2022-11-20T09:33:18;100968.56;;;3.48;100.00
5996;BME280;3026;53.612;7.278;2022-11-20T09:35:45;100966.94;;;3.57;100.00
5996;BME280;3026;53.612;7.278;2022-11-20T09:38:12;100968.03;;;3.77;100.00
5996;BME280;3026;53.612;7.278;2022-11-20T09:40:45;100967.97;;;3.99;100.00
5996;BME280;3026;53.612;7.278;2022-11-20T09:43:18;100968.34;;;4.27;100.00
5996;BME280;3026;53.612;7.278;2022-11-20T09:46:08;100974.81;;;4.35;100.00
5996;BME280;3026;53.612;7.278;2022-11-20T09:48:50;100975.91;;;4.44;100.00
5996;BME280;3026;53.612;7.278;2022-11-20T09:51:37;100972.16;;;4.56;100.00
5996;BME280;3026;53.612;7.278;2022-11-20T09:54:15;100969.31;;;4.79;100.00
5996;BME280;3026;53.612;7.278;2022-11-20T09:56:44;100975.50;;;4.90;100.00
5996;BME280;3026;53.612;7.278;2022-11-20T09:59:32;100969.47;;;5.08;100.00
5996;BME280;3026;53.612;7.278;2022-11-20T10:02:02;100972.25;;;5.17;100.00
5996;BME280;3026;53.612;7.278;2022-11-20T10:04:31;100968.41;;;5.20;100.00
5996;BME280;3026;53.612;7.278;2022-11-20T10:07:04;100967.56;;;5.19;100.00
5996;BME280;3026;53.612;7.278;2022-11-20T10:09:35;100975.66;;;5.19;100.00
5996;BME280;3026;53.612;7.278;2022-11-20T10:12:13;100963.41;;;5.15;100.00
5996;BME280;3026;53.612;7.278;2022-11-20T10:14:53;100964.13;;;5.17;100.00
5996;BME280;3026;53.612;7.278;2022-11-20T10:17:41;100966.56;;;5.20;100.00
5996;BME280;3026;53.612;7.278;2022-11-20T10:20:19;100963.59;;;5.23;100.00
5996;BME280;3026;53.612;7.278;2022-11-20T10:23:03;100957.47;;;5.21;100.00
5996;BME280;3026;53.612;7.278;2022-11-20T10:25:38;100962.63;;;5.24;100.00
5996;BME280;3026;53.612;7.278;2022-11-20T10:31:00;100953.84;;;5.42;100.00
5996;BME280;3026;53.612;7.278;2022-11-20T10:33:31;100945.59;;;5.43;100.00
5996;BME280;3026;53.612;7.278;2022-11-20T10:36:06;100946.44;;;5.44;100.00
5996;BME280;3026;53.612;7.278;2022-11-20T10:38:37;100942.16;;;5.41;100.00
5996;BME280;3026;53.612;7.278;2022-11-20T10:41:06;100946.16;;;5.37;100.00
5996;BME280;3026;53.612;7.278;2022-11-20T10:43:54;100947.28;;;5.35;100.00
5996;BME280;3026;53.612;7.278;2022-11-20T10:46:32;100939.00;;;5.26;100.00
5996;BME280;3026;53.612;7.278;2022-11-20T10:49:06;100944.69;;;5.23;100.00
5996;BME280;3026;53.612;7.278;2022-11-20T10:51:41;100940.41;;;5.21;100.00
5996;BME280;3026;53.612;7.278;2022-11-20T10:54:19;100944.94;;;5.20;100.00
5996;BME280;3026;53.612;7.278;2022-11-20T10:56:50;100940.78;;;5.16;100.00
5996;BME280;3026;53.612;7.278;2022-11-20T10:59:38;100942.06;;;5.12;100.00
5996;BME280;3026;53.612;7.278;2022-11-20T11:02:18;100934.63;;;5.05;100.00
5996;BME280;3026;53.612;7.278;2022-11-20T11:04:46;100934.03;;;5.01;100.00
5996;BME280;3026;53.612;7.278;2022-11-20T11:07:16;100941.44;;;4.99;100.00
5996;BME280;3026;53.612;7.278;2022-11-20T11:09:47;100933.34;;;4.99;100.00
5996;BME280;3026;53.612;7.278;2022-11-20T11:12:14;100926.59;;;4.93;100.00
5996;BME280;3026;53.612;7.278;2022-11-20T11:14:46;100920.34;;;4.93;100.00
5996;BME280;3026;53.612;7.278;2022-11-20T11:17:35;100924.03;;;4.92;100.00
5996;BME280;3026;53.612;7.278;2022-11-20T11:20:14;100919.50;;;4.92;100.00
5996;BME280;3026;53.612;7.278;2022-11-20T11:22:44;100922.06;;;4.94;100.00
5996;BME280;3026;53.612;7.278;2022-11-20T11:25:20;100921.34;;;4.92;100.00
5996;BME280;3026;53.612;7.278;2022-11-20T11:27:47;100924.03;;;4.92;100.00
5996;BME280;3026;53.612;7.278;2022-11-20T11:30:16;100919.50;;;4.92;100.00
5996;BME280;3026;53.612;7.278;2022-11-20T11:32:45;100911.53;;;4.91;100.00
5996;BME280;3026;53.612;7.278;2022-11-20T11:35:22;100913.38;;;5.21;100.00
5996;BME280;3026;53.612;7.278;2022-11-20T11:37:50;100906.47;;;5.07;100.00
5996;BME280;3026;53.612;7.278;2022-11-20T11:40:21;100912.44;;;5.01;100.00
5996;BME280;3026;53.612;7.278;2022-11-20T11:42:52;100909.25;;;4.96;100.00
5996;BME280;3026;53.612;7.278;2022-11-20T11:45:21;100904.13;;;4.93;100.00
5996;BME280;3026;53.612;7.278;2022-11-20T11:47:48;100915.22;;;4.90;100.00
5996;BME280;3026;53.612;7.278;2022-11-20T11:50:19;100907.38;;;4.87;100.00
5996;BME280;3026;53.612;7.278;2022-11-20T11:52:51;100906.63;;;4.85;100.00
5996;BME280;3026;53.612;7.278;2022-11-20T11:55:29;100898.09;;;4.80;100.00
5996;BME280;3026;53.612;7.278;2022-11-20T11:58:06;100900.34;;;4.75;100.00
5996;BME280;3026;53.612;7.278;2022-11-20T12:00:35;100886.09;;;4.73;100.00
5996;BME280;3026;53.612;7.278;2022-11-20T12:03:11;100889.34;;;4.66;100.00
5996;BME280;3026;53.612;7.278;2022-11-20T12:05:42;100898.25;;;4.57;100.00
5996;BME280;3026;53.612;7.278;2022-11-20T12:08:16;100889.69;;;4.52;100.00
5996;BME280;3026;53.612;7.278;2022-11-20T12:10:48;100883.81;;;4.47;100.00
5996;BME280;3026;53.612;7.278;2022-11-20T12:13:29;100882.81;;;4.48;100.00
5996;BME280;3026;53.612;7.278;2022-11-20T12:16:00;100877.44;;;4.48;100.00
5996;BME280;3026;53.612;7.278;2022-11-20T12:18:28;100875.72;;;4.47;100.00
5996;BME280;3026;53.612;7.278;2022-11-20T12:21:06;100860.38;;;4.48;100.00
5996;BME280;3026;53.612;7.278;2022-11-20T12:23:45;100858.38;;;4.50;100.00
5996;BME280;3026;53.612;7.278;2022-11-20T12:26:24;100860.09;;;4.51;100.00
5996;BME280;3026;53.612;7.278;2022-11-20T12:29:01;100852.28;;;4.48;100.00
5996;BME280;3026;53.612;7.278;2022-11-20T12:31:47;100856.44;;;4.52;100.00
5996;BME280;3026;53.612;7.278;2022-11-20T12:34:31;100852.00;;;4.51;100.00
5996;BME280;3026;53.612;7.278;2022-11-20T12:37:12;100855.31;;;4.54;100.00
5996;BME280;3026;53.612;7.278;2022-11-20T12:39:41;100855.31;;;4.54;100.00
5996;BME280;3026;53.612;7.278;2022-11-20T12:42:33;100863.84;;;4.59;100.00
5996;BME280;3026;53.612;7.278;2022-11-20T12:45:35;100855.03;;;4.57;100.00
5996;BME280;3026;53.612;7.278;2022-11-20T12:48:30;100862.41;;;4.55;100.00
5996;BME280;3026;53.612;7.278;2022-11-20T12:51:17;100847.34;;;4.53;100.00
5996;BME280;3026;53.612;7.278;2022-11-20T12:53:57;100844.25;;;4.57;100.00
5996;BME280;3026;53.612;7.278;2022-11-20T12:56:33;100851.34;;;4.58;100.00
5996;BME280;3026;53.612;7.278;2022-11-20T12:59:23;100840.53;;;4.58;100.00
5996;BME280;3026;53.612;7.278;2022-11-20T13:01:58;100851.34;;;4.58;100.00
5996;BME280;3026;53.612;7.278;2022-11-20T13:04:48;100851.06;;;4.61;100.00
5996;BME280;3026;53.612;7.278;2022-11-20T13:07:21;100849.97;;;4.64;100.00
5996;BME280;3026;53.612;7.278;2022-11-20T13:09:50;100852.53;;;4.65;100.00
5996;BME280;3026;53.612;7.278;2022-11-20T13:12:22;100843.44;;;4.66;100.00
5996;BME280;3026;53.612;7.278;2022-11-20T13:14:57;100846.13;;;4.66;100.00
5996;BME280;3026;53.612;7.278;2022-11-20T13:17:33;100837.75;;;4.69;100.00
5996;BME280;3026;53.612;7.278;2022-11-20T13:20:03;100826.94;;;4.69;100.00
5996;BME280;3026;53.612;7.278;2022-11-20T13:22:45;100816.16;;;4.69;100.00
5996;BME280;3026;53.612;7.278;2022-11-20T13:25:23;100819.56;;;4.72;100.00
5996;BME280;3026;53.612;7.278;2022-11-20T13:27:50;100813.31;;;4.71;100.00